createdAt,value
2023-09-19T00:01:08.951Z,17.96
2023-09-19T00:03:45.657Z,17.96
2023-09-19T00:06:21.700Z,17.96
2023-09-19T00:08:54.497Z,17.96
2023-09-19T00:11:27.510Z,17.95
2023-09-19T00:14:00.808Z,17.96
2023-09-19T00:16:33.932Z,17.97
2023-09-19T00:19:10.297Z,17.97
2023-09-19T00:21:43.232Z,17.96
2023-09-19T00:24:15.325Z,17.92
2023-09-19T00:26:49.208Z,17.90
2023-09-19T00:29:22.694Z,17.87
2023-09-19T00:31:55.404Z,17.87
2023-09-19T00:34:27.494Z,17.86
2023-09-19T00:37:00.937Z,17.84
2023-09-19T00:39:33.658Z,17.83
2023-09-19T00:42:06.733Z,17.82
2023-09-19T00:44:39.705Z,17.82
2023-09-19T00:47:17.378Z,17.82
2023-09-19T00:49:53.962Z,17.83
2023-09-19T00:52:26.694Z,17.86
2023-09-19T00:55:01.400Z,17.86
2023-09-19T00:57:35.010Z,17.83
2023-09-19T01:00:09.807Z,17.79
2023-09-19T01:02:42.364Z,17.77
2023-09-19T01:05:15.518Z,17.77
2023-09-19T01:07:50.276Z,17.76
2023-09-19T01:10:24.476Z,17.75
2023-09-19T01:13:06.874Z,17.76
2023-09-19T01:15:53.612Z,17.75
2023-09-19T01:18:42.988Z,17.77
2023-09-19T01:21:24.559Z,17.79
2023-09-19T01:24:29.274Z,17.80
2023-09-19T01:27:28.061Z,17.80
2023-09-19T01:30:12.824Z,17.80
2023-09-19T01:32:47.892Z,17.81
2023-09-19T01:35:21.076Z,17.80
2023-09-19T01:37:55.002Z,17.79
2023-09-19T01:40:27.760Z,17.79
2023-09-19T01:43:08.459Z,17.79
2023-09-19T01:46:00.362Z,17.80
2023-09-19T01:48:41.606Z,17.81
2023-09-19T01:51:16.937Z,17.83
2023-09-19T01:53:58.253Z,17.85
2023-09-19T01:56:39.160Z,17.83
2023-09-19T01:59:16.105Z,17.82
2023-09-19T02:01:50.494Z,17.81
2023-09-19T02:04:23.953Z,17.81
2023-09-19T02:06:57.642Z,17.80
2023-09-19T02:09:31.445Z,17.78
2023-09-19T02:12:06.130Z,17.77
2023-09-19T02:14:40.799Z,17.74
2023-09-19T02:17:13.646Z,17.73
2023-09-19T02:19:46.112Z,17.73
2023-09-19T02:22:18.365Z,17.71
2023-09-19T02:24:52.041Z,17.72
2023-09-19T02:27:25.082Z,17.73
2023-09-19T02:29:58.005Z,17.73
2023-09-19T02:32:31.534Z,17.71
2023-09-19T02:35:05.738Z,17.70
2023-09-19T02:37:38.226Z,17.65
2023-09-19T02:40:20.530Z,17.62
2023-09-19T02:42:57.709Z,17.60
2023-09-19T02:45:31.335Z,17.55
2023-09-19T02:48:06.173Z,17.51
2023-09-19T02:50:39.722Z,17.50
2023-09-19T02:53:14.002Z,17.46
2023-09-19T02:55:47.260Z,17.45
2023-09-19T02:58:20.585Z,17.44
2023-09-19T03:00:53.131Z,17.45
2023-09-19T03:03:25.821Z,17.47
2023-09-19T03:05:59.901Z,17.49
2023-09-19T03:08:32.351Z,17.49
2023-09-19T03:11:06.951Z,17.48
2023-09-19T03:13:39.858Z,17.45
2023-09-19T03:16:13.077Z,17.42
2023-09-19T03:18:46.530Z,17.37
2023-09-19T03:21:20.884Z,17.33
2023-09-19T03:23:52.948Z,17.31
2023-09-19T03:26:27.647Z,17.28
2023-09-19T03:29:00.045Z,17.26
2023-09-19T03:31:32.294Z,17.24
2023-09-19T03:34:05.034Z,17.23
2023-09-19T03:36:37.166Z,17.21
2023-09-19T03:39:11.886Z,17.18
2023-09-19T03:41:46.406Z,17.16
2023-09-19T03:44:18.793Z,17.15
2023-09-19T03:46:51.701Z,17.15
2023-09-19T03:49:27.149Z,17.16
2023-09-19T03:51:59.734Z,17.17
2023-09-19T03:54:35.861Z,17.18
2023-09-19T03:57:08.837Z,17.21
2023-09-19T03:59:44.221Z,17.26
2023-09-19T04:02:23.920Z,17.30
2023-09-19T04:04:56.647Z,17.30
2023-09-19T04:07:30.450Z,17.33
2023-09-19T04:10:05.792Z,17.32
2023-09-19T04:12:37.893Z,17.30
2023-09-19T04:15:14.619Z,17.26
2023-09-19T04:17:48.036Z,17.22
2023-09-19T04:20:21.787Z,17.20
2023-09-19T04:22:54.098Z,17.18
2023-09-19T04:25:29.129Z,17.19
2023-09-19T04:28:01.805Z,17.20
2023-09-19T04:30:36.589Z,17.18
2023-09-19T04:33:09.043Z,17.18
2023-09-19T04:35:43.892Z,17.19
2023-09-19T04:38:16.101Z,17.19
2023-09-19T04:40:48.567Z,17.19
2023-09-19T04:43:23.069Z,17.20
2023-09-19T04:45:58.013Z,17.22
2023-09-19T04:48:31.100Z,17.23
2023-09-19T04:51:03.522Z,17.23
2023-09-19T04:53:35.984Z,17.23
2023-09-19T04:56:09.421Z,17.21
2023-09-19T04:58:41.686Z,17.21
2023-09-19T05:01:16.658Z,17.23
2023-09-19T05:03:53.663Z,17.26
2023-09-19T05:06:27.993Z,17.29
2023-09-19T05:09:01.635Z,17.34
2023-09-19T05:11:34.532Z,17.42
2023-09-19T05:14:07.021Z,17.48
2023-09-19T05:16:41.219Z,17.55
2023-09-19T05:19:13.929Z,17.60
2023-09-19T05:21:46.563Z,17.64
2023-09-19T05:24:19.224Z,17.70
2023-09-19T05:26:52.553Z,17.73
2023-09-19T05:29:24.780Z,17.74
2023-09-19T05:31:57.202Z,17.73
2023-09-19T05:34:31.491Z,17.76
2023-09-19T05:37:03.973Z,17.80
2023-09-19T05:39:36.189Z,17.81
2023-09-19T05:42:09.431Z,17.82
2023-09-19T05:44:41.655Z,17.85
2023-09-19T05:47:14.292Z,17.90
2023-09-19T05:49:46.611Z,17.97
2023-09-19T05:52:18.999Z,18.02
2023-09-19T05:54:52.361Z,18.05
2023-09-19T05:57:26.044Z,18.10
2023-09-19T05:59:58.178Z,18.15
2023-09-19T06:02:31.721Z,18.18
2023-09-19T06:05:04.636Z,18.23
2023-09-19T06:07:38.491Z,18.30
2023-09-19T06:10:11.587Z,18.39
2023-09-19T06:12:45.577Z,18.48
2023-09-19T06:15:20.675Z,18.58
2023-09-19T06:17:56.678Z,18.70
2023-09-19T06:20:30.159Z,18.80
2023-09-19T06:23:03.558Z,18.88
2023-09-19T06:25:35.912Z,18.94
2023-09-19T06:28:11.700Z,19.00
2023-09-19T06:30:43.978Z,19.04
2023-09-19T06:33:19.752Z,19.09
2023-09-19T06:35:54.022Z,19.18
2023-09-19T06:38:26.435Z,19.34
2023-09-19T06:40:58.786Z,19.49
2023-09-19T06:43:32.101Z,19.63
2023-09-19T06:46:05.208Z,19.81
2023-09-19T06:48:38.014Z,19.92
2023-09-19T06:51:11.317Z,20.08
2023-09-19T06:53:43.767Z,20.22
2023-09-19T06:56:15.818Z,20.37
2023-09-19T06:58:48.293Z,20.53
2023-09-19T07:01:21.911Z,20.67
2023-09-19T07:03:54.631Z,20.75
2023-09-19T07:06:27.400Z,20.83
2023-09-19T07:08:59.543Z,20.97
2023-09-19T07:11:32.160Z,21.11
2023-09-19T07:14:04.722Z,21.22
2023-09-19T07:16:37.428Z,21.31
2023-09-19T07:19:12.595Z,21.39
2023-09-19T07:21:44.808Z,21.48
2023-09-19T07:24:17.106Z,21.54
2023-09-19T07:26:49.502Z,21.59
2023-09-19T07:29:22.360Z,21.63
2023-09-19T07:31:54.578Z,21.67
2023-09-19T07:34:26.726Z,21.70
2023-09-19T07:36:58.865Z,21.76
2023-09-19T07:39:31.243Z,21.82
2023-09-19T07:42:03.893Z,21.92
2023-09-19T07:44:37.283Z,22.01
2023-09-19T07:47:10.980Z,22.04
2023-09-19T07:49:44.980Z,22.05
2023-09-19T07:52:17.416Z,22.00
2023-09-19T07:54:50.716Z,21.95
2023-09-19T07:57:22.842Z,21.91
2023-09-19T07:59:55.228Z,21.88
2023-09-19T08:02:27.408Z,21.86
2023-09-19T08:05:01.969Z,21.89
2023-09-19T08:07:34.276Z,21.90
2023-09-19T08:10:09.103Z,21.94
2023-09-19T08:12:47.481Z,22.05
2023-09-19T08:15:21.995Z,22.19
2023-09-19T08:17:54.400Z,22.25
2023-09-19T08:20:26.986Z,22.26
2023-09-19T08:23:00.057Z,22.26
2023-09-19T08:25:32.925Z,22.24
2023-09-19T08:28:09.617Z,22.16
2023-09-19T08:30:42.967Z,22.08
2023-09-19T08:33:16.454Z,22.01
2023-09-19T08:35:48.872Z,21.93
2023-09-19T08:38:22.171Z,21.82
2023-09-19T08:40:54.562Z,21.74
2023-09-19T08:43:26.834Z,21.67
2023-09-19T08:46:11.833Z,21.62
2023-09-19T08:48:54.265Z,21.60
2023-09-19T08:51:42.276Z,21.56
2023-09-19T08:54:23.547Z,21.47
2023-09-19T08:56:59.877Z,21.34
2023-09-19T08:59:32.967Z,21.26
2023-09-19T09:02:06.459Z,21.25
2023-09-19T09:04:38.844Z,21.24
2023-09-19T09:07:14.904Z,21.25
2023-09-19T09:09:47.377Z,21.19
2023-09-19T09:12:21.049Z,21.09
2023-09-19T09:14:53.801Z,21.01
2023-09-19T09:17:26.590Z,20.97
2023-09-19T09:20:00.033Z,20.81
2023-09-19T09:22:32.940Z,20.58
2023-09-19T09:25:06.045Z,20.31
2023-09-19T09:27:38.332Z,20.09
2023-09-19T09:30:14.382Z,19.91
2023-09-19T09:33:02.051Z,19.82
2023-09-19T09:35:40.218Z,19.80
2023-09-19T09:38:13.623Z,19.80
2023-09-19T09:41:01.101Z,19.72
2023-09-19T09:43:41.435Z,19.59
2023-09-19T09:46:36.502Z,19.45
2023-09-19T09:49:27.930Z,19.40
2023-09-19T09:52:12.222Z,19.40
2023-09-19T09:55:06.669Z,19.39
2023-09-19T09:57:42.275Z,19.42
2023-09-19T10:00:21.875Z,19.47
2023-09-19T10:02:54.563Z,19.51
2023-09-19T10:05:30.227Z,19.58
2023-09-19T10:08:21.024Z,19.64
2023-09-19T10:11:05.012Z,19.69
2023-09-19T10:13:43.287Z,19.78
2023-09-19T10:16:21.188Z,19.81
2023-09-19T10:18:59.674Z,19.84
2023-09-19T10:21:32.683Z,19.92
2023-09-19T10:24:06.092Z,19.99
2023-09-19T10:26:38.880Z,20.06
2023-09-19T10:29:12.121Z,20.15
2023-09-19T10:31:50.286Z,20.24
2023-09-19T10:34:24.720Z,20.29
2023-09-19T10:36:56.943Z,20.35
2023-09-19T10:39:32.848Z,20.41
2023-09-19T10:42:08.452Z,20.47
2023-09-19T10:44:44.678Z,20.50
2023-09-19T10:47:17.219Z,20.45
2023-09-19T10:49:50.185Z,20.44
2023-09-19T10:52:27.044Z,20.44
2023-09-19T10:55:02.741Z,20.45
2023-09-19T10:57:37.318Z,20.46
2023-09-19T11:00:25.563Z,20.54
2023-09-19T11:03:24.626Z,20.61
2023-09-19T11:06:12.829Z,20.71
2023-09-19T11:09:25.123Z,20.78
2023-09-19T11:11:58.715Z,20.80
2023-09-19T11:14:46.794Z,20.85
2023-09-19T11:17:48.224Z,20.90
2023-09-19T11:20:43.089Z,20.91
2023-09-19T11:23:32.135Z,20.88
2023-09-19T11:26:05.969Z,20.82
2023-09-19T11:28:40.572Z,20.79
2023-09-19T11:32:00.923Z,20.77
2023-09-19T11:34:49.890Z,20.83
2023-09-19T11:38:12.293Z,20.87
2023-09-19T11:40:56.757Z,20.91
2023-09-19T11:43:41.718Z,20.89
2023-09-19T11:46:25.739Z,20.91
2023-09-19T11:49:09.436Z,20.93
2023-09-19T11:51:46.082Z,20.90
2023-09-19T11:54:23.349Z,20.92
2023-09-19T11:56:56.726Z,20.96
2023-09-19T11:59:34.605Z,20.96
2023-09-19T12:02:10.127Z,20.94
2023-09-19T12:04:46.629Z,20.91
2023-09-19T12:07:25.260Z,20.87
2023-09-19T12:10:13.069Z,20.87
2023-09-19T12:12:51.320Z,20.86
2023-09-19T12:15:29.913Z,20.80
2023-09-19T12:18:09.243Z,20.76
2023-09-19T12:20:50.158Z,20.76
2023-09-19T12:23:23.086Z,20.75
2023-09-19T12:25:58.857Z,20.72
2023-09-19T12:28:36.276Z,20.68
2023-09-19T12:31:13.204Z,20.65
2023-09-19T12:33:45.863Z,20.60
2023-09-19T12:36:31.478Z,20.59
2023-09-19T12:39:10.258Z,20.58
2023-09-19T12:41:46.581Z,20.58
2023-09-19T12:44:19.437Z,20.58
2023-09-19T12:46:52.290Z,20.58
2023-09-19T12:49:24.478Z,20.55
2023-09-19T12:52:00.659Z,20.58
2023-09-19T12:54:43.141Z,20.61
2023-09-19T12:57:28.603Z,20.58
2023-09-19T13:00:01.247Z,20.55
2023-09-19T13:02:33.999Z,20.55
2023-09-19T13:05:08.410Z,20.52
2023-09-19T13:07:48.540Z,20.49
2023-09-19T13:10:25.565Z,20.51
2023-09-19T13:13:00.156Z,20.49
2023-09-19T13:15:53.614Z,20.52
2023-09-19T13:18:28.166Z,20.50
2023-09-19T13:21:16.401Z,20.48
2023-09-19T13:23:49.655Z,20.43
2023-09-19T13:26:23.980Z,20.41
2023-09-19T13:28:56.585Z,20.41
2023-09-19T13:31:28.890Z,20.40
2023-09-19T13:34:01.206Z,20.39
2023-09-19T13:36:33.899Z,20.38
2023-09-19T13:39:06.701Z,20.41
2023-09-19T13:41:44.048Z,20.43
2023-09-19T13:44:19.318Z,20.47
2023-09-19T13:46:52.763Z,20.52
2023-09-19T13:49:25.413Z,20.51
2023-09-19T13:51:59.550Z,20.50
2023-09-19T13:54:31.989Z,20.50
2023-09-19T13:57:04.561Z,20.49
2023-09-19T13:59:37.221Z,20.50
2023-09-19T14:02:09.919Z,20.50
2023-09-19T14:04:42.361Z,20.47
2023-09-19T14:07:16.627Z,20.41
2023-09-19T14:09:54.121Z,20.32
2023-09-19T14:12:28.826Z,20.26
2023-09-19T14:15:00.873Z,20.12
2023-09-19T14:17:34.356Z,20.07
2023-09-19T14:20:08.416Z,19.99
2023-09-19T14:22:41.137Z,19.89
2023-09-19T14:25:13.566Z,19.80
2023-09-19T14:27:46.124Z,19.74
2023-09-19T14:30:18.815Z,19.69
2023-09-19T14:32:57.356Z,19.70
2023-09-19T14:35:29.496Z,19.75
2023-09-19T14:38:03.040Z,19.78
2023-09-19T14:40:37.526Z,19.78
2023-09-19T14:43:09.909Z,19.80
2023-09-19T14:45:42.261Z,19.82
2023-09-19T14:48:14.678Z,19.86
2023-09-19T14:50:49.477Z,19.88
2023-09-19T14:53:22.220Z,19.88
2023-09-19T14:55:56.291Z,19.86
2023-09-19T14:58:31.247Z,19.90
2023-09-19T15:01:11.564Z,19.93
2023-09-19T15:03:45.754Z,19.95
2023-09-19T15:06:23.170Z,19.98
2023-09-19T15:08:55.351Z,19.98
2023-09-19T15:11:27.444Z,20.03
2023-09-19T15:14:00.276Z,20.11
2023-09-19T15:16:34.274Z,20.11
2023-09-19T15:19:08.724Z,20.12
2023-09-19T15:21:41.624Z,20.13
2023-09-19T15:24:14.065Z,20.14
2023-09-19T15:26:49.355Z,20.15
2023-09-19T15:29:22.802Z,20.18
2023-09-19T15:31:58.737Z,20.20
2023-09-19T15:34:31.337Z,20.24
2023-09-19T15:37:07.204Z,20.27
2023-09-19T15:39:39.391Z,20.25
2023-09-19T15:42:13.347Z,20.23
2023-09-19T15:44:47.987Z,20.21
2023-09-19T15:47:28.761Z,20.21
2023-09-19T15:50:01.517Z,20.26
2023-09-19T15:52:33.781Z,20.29
2023-09-19T15:55:08.552Z,20.26
2023-09-19T15:57:41.658Z,20.23
2023-09-19T16:00:18.542Z,20.24
2023-09-19T16:02:52.936Z,20.23
2023-09-19T16:05:26.475Z,20.23
2023-09-19T16:08:01.620Z,20.18
2023-09-19T16:10:36.306Z,20.12
2023-09-19T16:13:09.308Z,20.04
2023-09-19T16:15:45.885Z,19.96
2023-09-19T16:18:17.958Z,19.91
2023-09-19T16:20:51.593Z,19.85
2023-09-19T16:23:25.389Z,19.78
2023-09-19T16:26:07.183Z,19.72
2023-09-19T16:28:40.477Z,19.72
2023-09-19T16:31:13.066Z,19.67
2023-09-19T16:33:47.314Z,19.57
2023-09-19T16:36:24.006Z,19.47
2023-09-19T16:38:56.497Z,19.40
2023-09-19T16:41:29.055Z,19.39
2023-09-19T16:44:02.449Z,19.37
2023-09-19T16:46:38.320Z,19.28
2023-09-19T16:49:11.145Z,19.19
2023-09-19T16:51:45.624Z,19.17
2023-09-19T16:54:18.145Z,19.18
2023-09-19T16:56:50.978Z,19.18
2023-09-19T16:59:25.201Z,19.15
2023-09-19T17:01:58.561Z,19.11
2023-09-19T17:04:32.676Z,19.05
2023-09-19T17:07:05.196Z,19.03
2023-09-19T17:09:37.583Z,19.04
2023-09-19T17:12:11.788Z,18.97
2023-09-19T17:14:45.200Z,18.88
2023-09-19T17:17:17.738Z,18.78
2023-09-19T17:19:50.757Z,18.69
2023-09-19T17:22:24.687Z,18.62
2023-09-19T17:24:56.836Z,18.50
2023-09-19T17:27:29.405Z,18.40
2023-09-19T17:30:01.485Z,18.31
2023-09-19T17:32:33.890Z,18.22
2023-09-19T17:35:06.803Z,18.17
2023-09-19T17:37:40.465Z,18.09
2023-09-19T17:40:16.644Z,17.97
2023-09-19T17:42:50.086Z,17.87
2023-09-19T17:45:23.479Z,17.79
2023-09-19T17:47:58.049Z,17.73
2023-09-19T17:50:30.581Z,17.64
2023-09-19T17:53:04.153Z,17.54
2023-09-19T17:55:40.988Z,17.47
2023-09-19T17:58:17.144Z,17.44
2023-09-19T18:00:49.606Z,17.41
2023-09-19T18:03:26.326Z,17.38
2023-09-19T18:05:58.652Z,17.35
2023-09-19T18:08:31.003Z,17.26
2023-09-19T18:11:05.219Z,17.15
2023-09-19T18:13:37.631Z,17.10
2023-09-19T18:16:11.761Z,16.99
2023-09-19T18:18:47.021Z,16.88
2023-09-19T18:21:22.628Z,16.81
2023-09-19T18:23:59.058Z,16.77
2023-09-19T18:26:31.713Z,16.78
2023-09-19T18:29:07.034Z,16.75
2023-09-19T18:31:50.786Z,16.69
2023-09-19T18:34:23.282Z,16.62
2023-09-19T18:37:00.176Z,16.57
2023-09-19T18:39:35.839Z,16.55
2023-09-19T18:42:09.601Z,16.50
2023-09-19T18:44:47.546Z,16.43
2023-09-19T18:47:18.310Z,16.33
2023-09-19T18:49:52.209Z,16.25
2023-09-19T18:52:28.798Z,16.16
2023-09-19T18:55:01.109Z,16.09
2023-09-19T18:57:33.242Z,16.07
2023-09-19T19:00:06.223Z,16.02
2023-09-19T19:02:40.984Z,15.93
2023-09-19T19:05:14.589Z,15.84
2023-09-19T19:07:47.265Z,15.76
2023-09-19T19:10:21.736Z,15.72
2023-09-19T19:12:54.102Z,15.64
2023-09-19T19:15:26.619Z,15.52
2023-09-19T19:18:00.204Z,15.40
2023-09-19T19:20:33.977Z,15.33
2023-09-19T19:23:06.850Z,15.27
2023-09-19T19:25:48.574Z,15.23
2023-09-19T19:28:26.232Z,15.14
2023-09-19T19:30:58.395Z,15.06
2023-09-19T19:33:30.754Z,15.04
2023-09-19T19:36:09.638Z,14.99
2023-09-19T19:38:42.933Z,14.92
2023-09-19T19:41:15.543Z,14.88
2023-09-19T19:43:50.640Z,14.83
2023-09-19T19:46:23.327Z,14.78
2023-09-19T19:48:55.585Z,14.79
2023-09-19T19:51:28.214Z,14.79
2023-09-19T19:54:00.347Z,14.75
2023-09-19T19:56:34.901Z,14.64
2023-09-19T19:59:07.652Z,14.53
2023-09-19T20:01:41.975Z,14.46
2023-09-19T20:04:15.520Z,14.43
2023-09-19T20:06:47.724Z,14.42
2023-09-19T20:09:22.598Z,14.42
2023-09-19T20:11:58.435Z,14.41
2023-09-19T20:14:30.922Z,14.37
2023-09-19T20:17:05.315Z,14.34
2023-09-19T20:19:37.409Z,14.28
2023-09-19T20:22:12.222Z,14.25
2023-09-19T20:24:47.459Z,14.21
2023-09-19T20:27:22.557Z,14.18
2023-09-19T20:29:54.613Z,14.15
2023-09-19T20:32:26.982Z,14.12
2023-09-19T20:35:01.192Z,14.15
2023-09-19T20:37:34.220Z,14.13
2023-09-19T20:40:07.785Z,14.16
2023-09-19T20:42:40.653Z,14.21
2023-09-19T20:45:14.307Z,14.27
2023-09-19T20:47:46.676Z,14.29
2023-09-19T20:50:20.604Z,14.26
2023-09-19T20:52:54.074Z,14.20
2023-09-19T20:55:26.732Z,14.18
2023-09-19T20:58:00.824Z,14.12
2023-09-19T21:00:36.108Z,14.12
2023-09-19T21:03:08.648Z,14.10
2023-09-19T21:05:41.132Z,14.08
2023-09-19T21:08:13.127Z,13.99
2023-09-19T21:10:45.491Z,13.87
2023-09-19T21:13:17.718Z,13.75
2023-09-19T21:15:50.428Z,13.77
2023-09-19T21:18:23.029Z,13.80
2023-09-19T21:20:55.855Z,13.80
2023-09-19T21:23:27.988Z,13.77
2023-09-19T21:26:00.557Z,13.74
2023-09-19T21:28:32.756Z,13.72
2023-09-19T21:31:08.522Z,13.68
2023-09-19T21:33:43.740Z,13.58
2023-09-19T21:36:21.945Z,13.50
2023-09-19T21:39:00.173Z,13.49
2023-09-19T21:41:35.135Z,13.49
2023-09-19T21:44:08.852Z,13.50
2023-09-19T21:46:42.945Z,13.49
2023-09-19T21:49:15.024Z,13.42
2023-09-19T21:51:47.351Z,13.43
2023-09-19T21:54:24.860Z,13.39
2023-09-19T21:56:59.630Z,13.38
2023-09-19T21:59:31.582Z,13.39
2023-09-19T22:02:04.097Z,13.32
2023-09-19T22:04:37.061Z,13.20
2023-09-19T22:07:10.136Z,13.14
2023-09-19T22:09:42.040Z,13.14
2023-09-19T22:12:14.798Z,13.18
2023-09-19T22:14:46.846Z,13.21
2023-09-19T22:17:20.485Z,13.16
2023-09-19T22:19:55.188Z,13.13
2023-09-19T22:22:31.001Z,13.16
2023-09-19T22:25:03.654Z,13.23
2023-09-19T22:27:36.431Z,13.21
2023-09-19T22:30:13.379Z,13.08
2023-09-19T22:32:46.080Z,13.06
2023-09-19T22:35:23.238Z,13.06
2023-09-19T22:38:08.167Z,13.07
2023-09-19T22:40:52.855Z,13.01
2023-09-19T22:43:33.389Z,12.99
2023-09-19T22:46:12.465Z,12.90
2023-09-19T22:48:47.349Z,12.79
2023-09-19T22:51:26.474Z,12.77
2023-09-19T22:54:00.645Z,12.73
2023-09-19T22:56:32.678Z,12.62
2023-09-19T22:59:06.049Z,12.65
2023-09-19T23:01:42.602Z,12.64
2023-09-19T23:04:18.501Z,12.59
2023-09-19T23:06:53.928Z,12.48
2023-09-19T23:09:31.251Z,12.38
2023-09-19T23:12:06.717Z,12.31
2023-09-19T23:14:43.101Z,12.25
2023-09-19T23:17:22.829Z,12.23
2023-09-19T23:19:57.263Z,12.20
2023-09-19T23:22:30.311Z,12.21
2023-09-19T23:25:13.679Z,12.21
2023-09-19T23:27:48.683Z,12.20
2023-09-19T23:30:24.283Z,12.22
2023-09-19T23:32:56.927Z,12.24
2023-09-19T23:35:29.756Z,12.31
2023-09-19T23:38:03.514Z,12.31
2023-09-19T23:40:37.522Z,12.32
2023-09-19T23:43:12.953Z,12.32
2023-09-19T23:45:45.602Z,12.32
2023-09-19T23:48:20.559Z,12.31
2023-09-19T23:50:53.283Z,12.38
2023-09-19T23:53:27.561Z,12.42
2023-09-19T23:55:59.891Z,12.45
2023-09-19T23:58:34.322Z,12.49
